Fairview, Montana
Current Conditions -  °F | °C
As of 11:55 AM on Sunday 23 Nov 2014 (Local Time) from KSDY Reporting Station
Few Clouds Few Clouds  
Wind Chill:   Ceiling: Unl
Heat Index: 25°   Visibility: 10mi
Dew Point: 14°   Wind: 26mph
Humidity: 64%   Direction: 290°WNW
Pressure: 29.76"   Gusts: 33mph
Location:  47.86°N, 104.04°W
Report Text: KSDY 231855Z AUTO 29023G29KT 10SM FEW023 M04/M10 A2976 RMK AO1
Loading
Personal Weather Stations






























Interactive Weather Map New forecast layout! Learn more

10-Day Weather Forecast

Advertisements
Track Severe Weather on mobile